createdAt,value
2022-10-05T00:01:39.843Z,55.14
2022-10-05T00:04:20.818Z,55.21
2022-10-05T00:07:09.833Z,55.21
2022-10-05T00:09:38.828Z,55.18
2022-10-05T00:12:19.703Z,55.23
2022-10-05T00:14:51.221Z,55.28
2022-10-05T00:17:25.534Z,55.29
2022-10-05T00:19:54.978Z,55.42
2022-10-05T00:22:30.315Z,55.41
2022-10-05T00:25:01.405Z,55.49
2022-10-05T00:27:37.867Z,55.32
2022-10-05T00:30:21.123Z,55.38
2022-10-05T00:32:50.663Z,55.54
2022-10-05T00:35:20.551Z,55.60
2022-10-05T00:37:55.232Z,55.69
2022-10-05T00:40:35.695Z,55.77
2022-10-05T00:43:10.191Z,55.90
2022-10-05T00:45:46.635Z,55.87
2022-10-05T00:48:33.371Z,55.86
2022-10-05T00:51:13.635Z,55.96
2022-10-05T00:53:51.224Z,56.07
2022-10-05T00:56:38.135Z,56.06
2022-10-05T00:59:25.970Z,56.07
2022-10-05T01:02:07.357Z,56.21
2022-10-05T01:04:37.413Z,56.24
2022-10-05T01:07:44.359Z,56.23
2022-10-05T01:10:33.222Z,56.59
2022-10-05T01:13:01.802Z,56.45
2022-10-05T01:15:56.212Z,56.33
2022-10-05T01:18:26.833Z,56.35
2022-10-05T01:21:07.082Z,56.34
2022-10-05T01:23:57.475Z,56.52
2022-10-05T01:26:57.003Z,56.50
2022-10-05T01:29:33.964Z,56.47
2022-10-05T01:32:26.407Z,56.80
2022-10-05T01:35:16.499Z,56.64
2022-10-05T01:38:02.899Z,56.74
2022-10-05T01:41:09.991Z,56.85
2022-10-05T01:43:42.462Z,56.87
2022-10-05T01:46:24.773Z,56.84
2022-10-05T01:48:56.241Z,57.00
2022-10-05T01:51:43.132Z,56.97
2022-10-05T01:54:30.967Z,56.94
2022-10-05T01:57:16.962Z,56.94
2022-10-05T02:00:04.182Z,57.21
2022-10-05T02:03:10.868Z,57.32
2022-10-05T02:05:44.259Z,57.27
2022-10-05T02:08:24.220Z,57.33
2022-10-05T02:11:03.858Z,57.34
2022-10-05T02:13:44.621Z,57.21
2022-10-05T02:16:18.297Z,57.30
2022-10-05T02:19:02.987Z,57.35
2022-10-05T02:21:34.819Z,57.28
2022-10-05T02:24:11.373Z,57.19
2022-10-05T02:26:42.020Z,57.38
2022-10-05T02:29:15.752Z,57.62
2022-10-05T02:32:14.757Z,57.58
2022-10-05T02:34:44.568Z,57.44
2022-10-05T02:37:50.846Z,57.66
2022-10-05T02:40:26.747Z,57.72
2022-10-05T02:43:13.805Z,57.82
2022-10-05T02:46:22.310Z,57.79
2022-10-05T02:49:20.814Z,57.92
2022-10-05T02:52:10.693Z,58.09
2022-10-05T02:54:57.403Z,57.96
2022-10-05T02:57:31.417Z,57.91
2022-10-05T03:00:05.019Z,58.04
2022-10-05T03:03:07.704Z,58.20
2022-10-05T03:05:55.945Z,58.38
2022-10-05T03:08:40.918Z,58.31
2022-10-05T03:11:22.925Z,58.34
2022-10-05T03:13:57.303Z,58.39
2022-10-05T03:16:47.323Z,58.31
2022-10-05T03:19:54.611Z,58.44
2022-10-05T03:23:02.441Z,58.76
2022-10-05T03:25:33.151Z,58.73
2022-10-05T03:28:22.582Z,58.78
2022-10-05T03:31:17.684Z,59.14
2022-10-05T03:33:54.352Z,59.17
2022-10-05T03:36:43.471Z,59.14
2022-10-05T03:39:28.398Z,59.18
2022-10-05T03:42:05.622Z,59.33
2022-10-05T03:44:41.477Z,59.22
2022-10-05T03:47:22.761Z,59.45
2022-10-05T03:50:22.273Z,59.35
2022-10-05T03:53:07.849Z,59.54
2022-10-05T03:55:44.626Z,59.65
2022-10-05T03:58:33.383Z,59.68
2022-10-05T04:01:11.663Z,59.76
2022-10-05T04:03:50.523Z,59.67
2022-10-05T04:06:31.007Z,59.93
2022-10-05T04:09:06.256Z,59.91
2022-10-05T04:11:47.097Z,60.16
2022-10-05T04:14:51.213Z,60.39
2022-10-05T04:17:44.727Z,60.52
2022-10-05T04:20:34.050Z,60.61
2022-10-05T04:23:19.751Z,60.61
2022-10-05T04:25:57.827Z,60.74
2022-10-05T04:28:59.401Z,60.85
2022-10-05T04:31:46.672Z,61.08
2022-10-05T04:34:27.906Z,60.95
2022-10-05T04:37:04.171Z,61.00
2022-10-05T04:39:47.161Z,60.85
2022-10-05T04:42:29.909Z,60.80
2022-10-05T04:45:43.855Z,60.68
2022-10-05T04:48:15.612Z,60.72
2022-10-05T04:51:03.358Z,60.74
2022-10-05T04:53:41.050Z,60.58
2022-10-05T04:56:18.973Z,60.57
2022-10-05T04:58:57.160Z,60.47
2022-10-05T05:01:44.298Z,60.60
2022-10-05T05:04:21.047Z,60.54
2022-10-05T05:07:08.818Z,60.57
2022-10-05T05:10:01.990Z,60.57
2022-10-05T05:12:42.663Z,60.76
2022-10-05T05:15:42.265Z,60.59
2022-10-05T05:18:26.171Z,60.67
2022-10-05T05:21:40.581Z,60.31
2022-10-05T05:24:21.255Z,60.30
2022-10-05T05:26:59.043Z,60.21
2022-10-05T05:29:49.086Z,60.23
2022-10-05T05:32:53.055Z,60.27
2022-10-05T05:35:40.095Z,59.94
2022-10-05T05:38:28.806Z,59.86
2022-10-05T05:41:00.584Z,59.78
2022-10-05T05:43:38.433Z,59.66
2022-10-05T05:46:16.393Z,59.31
2022-10-05T05:48:47.791Z,59.22
2022-10-05T05:51:33.362Z,59.31
2022-10-05T05:54:25.402Z,59.30
2022-10-05T05:57:17.944Z,59.19
2022-10-05T06:00:06.208Z,59.08
2022-10-05T06:03:14.495Z,59.10
2022-10-05T06:06:17.498Z,59.07
2022-10-05T06:09:03.796Z,58.73
2022-10-05T06:11:52.561Z,58.58
2022-10-05T06:14:53.499Z,57.85
2022-10-05T06:17:22.298Z,56.82
2022-10-05T06:19:55.750Z,57.07
2022-10-05T06:22:42.175Z,57.18
2022-10-05T06:25:13.947Z,56.23
2022-10-05T06:28:04.296Z,56.58
2022-10-05T06:31:13.547Z,56.60
2022-10-05T06:33:55.233Z,56.64
2022-10-05T06:36:53.757Z,56.45
2022-10-05T06:40:00.766Z,56.33
2022-10-05T06:42:52.676Z,56.24
2022-10-05T06:46:03.309Z,55.43
2022-10-05T06:48:56.400Z,54.89
2022-10-05T06:51:56.115Z,54.99
2022-10-05T06:54:43.655Z,54.44
2022-10-05T06:57:36.813Z,54.24
2022-10-05T07:00:27.653Z,53.75
2022-10-05T07:03:15.449Z,54.05
2022-10-05T07:05:53.247Z,53.71
2022-10-05T07:08:31.352Z,52.82
2022-10-05T07:11:31.482Z,52.43
2022-10-05T07:14:09.992Z,51.88
2022-10-05T07:16:45.734Z,52.15
2022-10-05T07:20:06.664Z,52.03
2022-10-05T07:23:14.157Z,50.97
2022-10-05T07:26:09.979Z,49.63
2022-10-05T07:28:47.675Z,51.11
2022-10-05T07:31:16.720Z,51.65
2022-10-05T07:33:53.650Z,50.53
2022-10-05T07:37:06.571Z,50.32
2022-10-05T07:39:59.000Z,51.08
2022-10-05T07:42:48.778Z,51.27
2022-10-05T07:45:49.699Z,51.02
2022-10-05T07:48:27.041Z,49.37
2022-10-05T07:51:08.105Z,48.74
2022-10-05T07:53:41.706Z,49.83
2022-10-05T07:56:41.073Z,49.82
2022-10-05T07:59:33.350Z,48.78
2022-10-05T08:02:23.272Z,47.06
2022-10-05T08:05:06.363Z,46.95
2022-10-05T08:07:36.989Z,48.52
2022-10-05T08:10:39.273Z,48.25
2022-10-05T08:13:19.937Z,46.93
2022-10-05T08:15:56.440Z,47.66
2022-10-05T08:18:37.685Z,47.37
2022-10-05T08:21:12.198Z,46.18
2022-10-05T08:24:27.490Z,46.14
2022-10-05T08:27:32.937Z,46.49
2022-10-05T08:30:14.070Z,45.43
2022-10-05T08:32:55.507Z,45.03
2022-10-05T08:35:39.153Z,45.15
2022-10-05T08:38:20.225Z,45.53
2022-10-05T08:40:48.698Z,44.55
2022-10-05T08:43:41.962Z,44.23
2022-10-05T08:46:41.447Z,44.00
2022-10-05T08:49:42.413Z,42.49
2022-10-05T08:52:17.140Z,42.16
2022-10-05T08:55:07.638Z,42.79
2022-10-05T08:58:04.278Z,42.49
2022-10-05T09:00:58.462Z,41.57
2022-10-05T09:03:36.161Z,41.32
2022-10-05T09:06:46.634Z,42.00
2022-10-05T09:09:52.692Z,41.01
2022-10-05T09:12:33.256Z,41.80
2022-10-05T09:15:31.782Z,38.97
2022-10-05T09:18:12.102Z,38.63
2022-10-05T09:20:52.261Z,38.82
2022-10-05T09:23:40.609Z,39.29
2022-10-05T09:26:44.927Z,39.61
2022-10-05T09:29:38.086Z,38.59
2022-10-05T09:32:34.630Z,40.41
2022-10-05T09:35:39.091Z,40.10
2022-10-05T09:38:13.676Z,37.21
2022-10-05T09:41:32.037Z,37.09
2022-10-05T09:44:34.731Z,36.74
2022-10-05T09:47:33.510Z,38.64
2022-10-05T09:50:14.379Z,38.11
2022-10-05T09:53:05.900Z,35.94
2022-10-05T09:56:06.638Z,35.21
2022-10-05T09:58:50.376Z,36.78
2022-10-05T10:01:34.104Z,34.89
2022-10-05T10:04:25.057Z,35.14
2022-10-05T10:06:53.607Z,35.91
2022-10-05T10:09:38.834Z,35.24
2022-10-05T10:12:19.960Z,36.98
2022-10-05T10:15:02.497Z,35.68
2022-10-05T10:17:51.639Z,35.70
2022-10-05T10:21:09.590Z,35.11
2022-10-05T10:24:11.270Z,36.00
2022-10-05T10:26:58.562Z,35.72
2022-10-05T10:29:33.086Z,35.53
2022-10-05T10:32:39.153Z,35.97
2022-10-05T10:35:31.560Z,36.15
2022-10-05T10:38:32.236Z,35.47
2022-10-05T10:41:28.461Z,36.93
2022-10-05T10:44:15.989Z,35.64
2022-10-05T10:47:35.368Z,34.61
2022-10-05T10:50:12.503Z,34.88
2022-10-05T10:53:18.627Z,35.11
2022-10-05T10:56:12.390Z,34.47
2022-10-05T10:59:31.691Z,33.04
2022-10-05T11:02:37.882Z,33.99
2022-10-05T11:05:35.601Z,35.13
2022-10-05T11:08:20.357Z,33.91
2022-10-05T11:11:12.701Z,34.42
2022-10-05T11:13:44.355Z,33.71
2022-10-05T11:16:22.052Z,33.90
2022-10-05T11:19:20.615Z,35.05
2022-10-05T11:22:00.724Z,34.90
2022-10-05T11:24:34.585Z,33.51
2022-10-05T11:27:27.360Z,33.57
2022-10-05T11:30:06.105Z,33.83
2022-10-05T11:33:01.538Z,34.35
2022-10-05T11:36:10.255Z,34.68
2022-10-05T11:38:55.613Z,34.09
2022-10-05T11:42:01.772Z,34.43
2022-10-05T11:44:39.456Z,33.34
2022-10-05T11:47:32.366Z,32.70
2022-10-05T11:50:27.188Z,32.14
2022-10-05T11:53:12.725Z,32.12
2022-10-05T11:56:00.113Z,33.86
2022-10-05T11:58:51.868Z,33.67
2022-10-05T12:01:42.455Z,33.11
2022-10-05T12:04:43.496Z,32.01
2022-10-05T12:07:30.810Z,32.61
2022-10-05T12:10:14.454Z,32.32
2022-10-05T12:13:15.394Z,32.84
2022-10-05T12:15:48.492Z,33.85
2022-10-05T12:18:33.045Z,34.64
2022-10-05T12:21:42.382Z,33.94
2022-10-05T12:24:44.667Z,33.16
2022-10-05T12:27:25.834Z,32.32
2022-10-05T12:30:04.555Z,33.23
2022-10-05T12:32:45.279Z,33.84
2022-10-05T12:35:48.356Z,33.47
2022-10-05T12:38:28.798Z,33.39
2022-10-05T12:41:04.637Z,33.84
2022-10-05T12:43:36.342Z,34.48
2022-10-05T12:46:31.703Z,34.74
2022-10-05T12:49:14.832Z,34.34
2022-10-05T12:51:52.628Z,34.66
2022-10-05T12:55:00.332Z,34.69
2022-10-05T12:57:46.941Z,34.21
2022-10-05T13:00:23.247Z,34.08
2022-10-05T13:03:08.993Z,33.76
2022-10-05T13:06:02.650Z,33.23
2022-10-05T13:08:53.465Z,33.81
2022-10-05T13:11:27.893Z,34.12
2022-10-05T13:14:04.567Z,33.50
2022-10-05T13:16:36.313Z,33.14
2022-10-05T13:19:17.026Z,34.01
2022-10-05T13:22:10.248Z,34.83
2022-10-05T13:24:52.776Z,34.75
2022-10-05T13:27:28.113Z,34.51
2022-10-05T13:30:15.635Z,34.95
2022-10-05T13:32:49.461Z,35.11
2022-10-05T13:35:36.352Z,35.05
2022-10-05T13:38:34.631Z,35.20
2022-10-05T13:41:24.010Z,35.48
2022-10-05T13:44:01.568Z,35.73
2022-10-05T13:46:49.389Z,35.64
2022-10-05T13:49:23.855Z,35.16
2022-10-05T13:52:09.135Z,35.53
2022-10-05T13:54:47.040Z,35.95
2022-10-05T13:58:23.611Z,36.10
2022-10-05T14:00:59.160Z,36.26
2022-10-05T14:03:38.301Z,36.36
2022-10-05T14:06:15.620Z,36.26
2022-10-05T14:08:51.536Z,36.42
2022-10-05T14:11:47.871Z,36.57
2022-10-05T14:14:29.769Z,36.74
2022-10-05T14:19:33.900Z,36.59
2022-10-05T14:22:12.415Z,36.81
2022-10-05T14:24:51.653Z,36.78
2022-10-05T14:27:33.405Z,36.91
2022-10-05T14:30:18.630Z,36.92
2022-10-05T14:33:07.080Z,36.99
2022-10-05T14:35:50.948Z,37.39
2022-10-05T14:38:30.250Z,37.54
2022-10-05T14:41:10.829Z,37.38
2022-10-05T14:43:51.170Z,37.56
2022-10-05T14:46:23.408Z,37.77
2022-10-05T14:49:21.942Z,37.79
2022-10-05T14:51:51.948Z,37.72
2022-10-05T14:54:54.182Z,37.76
2022-10-05T14:57:59.157Z,38.00
2022-10-05T15:00:35.419Z,38.09
2022-10-05T15:03:32.275Z,38.04
2022-10-05T15:06:02.562Z,37.99
2022-10-05T15:08:49.305Z,38.06
2022-10-05T15:11:44.510Z,38.04
2022-10-05T15:14:25.381Z,38.07
2022-10-05T15:16:59.201Z,38.14
2022-10-05T15:19:53.064Z,38.00
2022-10-05T15:22:49.294Z,38.12
2022-10-05T15:25:27.416Z,38.00
2022-10-05T15:28:05.026Z,38.11
2022-10-05T15:30:39.623Z,38.35
2022-10-05T15:33:25.616Z,38.48
2022-10-05T15:36:14.935Z,38.52
2022-10-05T15:38:58.146Z,38.84
2022-10-05T15:41:41.851Z,39.18
2022-10-05T15:44:20.267Z,39.39
2022-10-05T15:46:57.248Z,39.71
2022-10-05T15:49:38.326Z,39.69
2022-10-05T15:52:18.114Z,39.85
2022-10-05T15:55:09.699Z,40.12
2022-10-05T15:57:41.965Z,40.27
2022-10-05T16:00:14.340Z,40.49
2022-10-05T16:03:12.209Z,40.70
2022-10-05T16:06:26.054Z,40.79
2022-10-05T16:09:32.959Z,41.03
2022-10-05T16:12:32.753Z,41.23
2022-10-05T16:15:26.895Z,41.32
2022-10-05T16:18:34.332Z,41.41
2022-10-05T16:21:19.916Z,41.68
2022-10-05T16:23:54.903Z,41.82
2022-10-05T16:26:50.160Z,42.05
2022-10-05T16:29:54.075Z,42.10
2022-10-05T16:32:30.505Z,42.37
2022-10-05T16:35:17.966Z,42.45
2022-10-05T16:37:59.760Z,42.63
2022-10-05T16:40:46.676Z,42.62
2022-10-05T16:43:18.333Z,42.85
2022-10-05T16:45:52.163Z,42.92
2022-10-05T16:48:32.714Z,43.12
2022-10-05T16:51:04.475Z,43.40
2022-10-05T16:53:36.935Z,43.62
2022-10-05T16:56:11.925Z,43.70
2022-10-05T16:58:46.589Z,43.83
2022-10-05T17:01:46.767Z,43.84
2022-10-05T17:04:49.608Z,43.83
2022-10-05T17:07:27.352Z,43.89
2022-10-05T17:09:59.639Z,43.94
2022-10-05T17:12:43.421Z,43.90
2022-10-05T17:15:33.748Z,44.01
2022-10-05T17:19:01.181Z,44.18
2022-10-05T17:21:44.774Z,44.29
2022-10-05T17:24:22.207Z,44.35
2022-10-05T17:27:21.619Z,44.54
2022-10-05T17:29:53.366Z,44.48
2022-10-05T17:32:39.850Z,44.54
2022-10-05T17:35:20.803Z,44.50
2022-10-05T17:38:14.506Z,44.57
2022-10-05T17:41:22.077Z,44.48
2022-10-05T17:44:24.749Z,44.63
2022-10-05T17:46:56.404Z,44.57
2022-10-05T17:49:47.309Z,44.64
2022-10-05T17:52:45.340Z,44.47
2022-10-05T17:55:42.597Z,44.17
2022-10-05T17:58:29.887Z,44.06
2022-10-05T18:00:58.732Z,43.89
2022-10-05T18:03:40.277Z,43.74
2022-10-05T18:06:48.419Z,43.74
2022-10-05T18:09:23.397Z,43.59
2022-10-05T18:12:16.811Z,43.66
2022-10-05T18:15:05.979Z,43.47
2022-10-05T18:17:56.373Z,43.36
2022-10-05T18:20:26.765Z,43.19
2022-10-05T18:23:24.499Z,43.32
2022-10-05T18:26:04.095Z,43.42
2022-10-05T18:28:57.067Z,43.12
2022-10-05T18:32:01.600Z,43.08
2022-10-05T18:34:44.322Z,43.26
2022-10-05T18:37:48.335Z,43.22
2022-10-05T18:40:59.624Z,43.22
2022-10-05T18:43:34.925Z,43.31
2022-10-05T18:46:22.392Z,43.21
2022-10-05T18:49:12.788Z,43.17
2022-10-05T18:52:05.830Z,43.31
2022-10-05T18:55:06.857Z,43.32
2022-10-05T18:58:00.040Z,43.46
2022-10-05T19:01:00.777Z,43.57
2022-10-05T19:03:49.433Z,43.45
2022-10-05T19:06:56.681Z,43.43
2022-10-05T19:10:02.171Z,43.61
2022-10-05T19:12:45.807Z,43.82
2022-10-05T19:15:17.369Z,43.93
2022-10-05T19:18:08.277Z,43.88
2022-10-05T19:21:01.225Z,43.91
2022-10-05T19:23:51.313Z,44.17
2022-10-05T19:26:32.082Z,44.11
2022-10-05T19:29:24.527Z,44.11
2022-10-05T19:32:19.324Z,44.18
2022-10-05T19:34:55.898Z,44.20
2022-10-05T19:37:50.288Z,44.28
2022-10-05T19:40:39.454Z,44.41
2022-10-05T19:43:21.246Z,44.66
2022-10-05T19:46:05.960Z,44.88
2022-10-05T19:48:45.550Z,44.60
2022-10-05T19:51:29.800Z,44.72
2022-10-05T19:54:02.679Z,44.76
2022-10-05T19:56:46.201Z,44.79
2022-10-05T19:59:19.924Z,45.06
2022-10-05T20:01:55.735Z,45.00
2022-10-05T20:04:41.907Z,45.14
2022-10-05T20:07:22.030Z,45.27
2022-10-05T20:10:20.209Z,45.47
2022-10-05T20:12:56.228Z,45.50
2022-10-05T20:15:49.555Z,45.77
2022-10-05T20:18:55.596Z,45.77
2022-10-05T20:21:49.487Z,45.80
2022-10-05T20:24:21.844Z,46.00
2022-10-05T20:27:06.932Z,46.11
2022-10-05T20:29:47.275Z,46.25
2022-10-05T20:32:18.201Z,46.19
2022-10-05T20:34:49.639Z,46.31
2022-10-05T20:37:19.272Z,46.22
2022-10-05T20:39:48.473Z,46.28
2022-10-05T20:42:18.944Z,46.40
2022-10-05T20:44:47.689Z,46.34
2022-10-05T20:47:16.376Z,46.40
2022-10-05T20:49:45.169Z,46.45
2022-10-05T20:52:15.489Z,46.58
2022-10-05T20:57:17.681Z,46.65
2022-10-05T20:59:46.280Z,46.58
2022-10-05T21:02:15.047Z,46.56
2022-10-05T21:04:47.906Z,46.80
2022-10-05T21:07:18.390Z,47.01
2022-10-05T21:09:47.472Z,47.20
2022-10-05T21:12:19.116Z,47.05
2022-10-05T21:14:47.694Z,46.91
2022-10-05T21:17:16.286Z,47.10
2022-10-05T21:19:45.382Z,47.06
2022-10-05T21:22:14.267Z,47.42
2022-10-05T21:24:42.955Z,47.49
2022-10-05T21:27:12.184Z,47.30
2022-10-05T21:29:44.564Z,47.38
2022-10-05T21:32:13.110Z,47.56
2022-10-05T21:34:41.902Z,47.72
2022-10-05T21:37:10.789Z,47.72
2022-10-05T21:39:39.480Z,47.99
2022-10-05T21:42:08.168Z,47.73
2022-10-05T21:44:37.056Z,47.77
2022-10-05T21:47:07.465Z,48.40
2022-10-05T21:49:36.986Z,49.38
2022-10-05T21:52:06.086Z,49.07
2022-10-05T21:54:35.385Z,48.82
2022-10-05T21:57:04.073Z,48.83
2022-10-05T21:59:34.909Z,48.72
2022-10-05T22:02:03.901Z,48.95
2022-10-05T22:04:32.589Z,49.83
2022-10-05T22:07:01.437Z,50.23
2022-10-05T22:09:29.968Z,49.58
2022-10-05T22:11:58.443Z,49.43
2022-10-05T22:14:28.668Z,49.35
2022-10-05T22:16:57.557Z,50.10
2022-10-05T22:19:26.406Z,50.33
2022-10-05T22:21:54.929Z,51.42
2022-10-05T22:24:23.415Z,51.46
2022-10-05T22:26:51.997Z,50.94
2022-10-05T22:29:21.504Z,51.66
2022-10-05T22:31:50.441Z,51.52
2022-10-05T22:34:19.182Z,51.57
2022-10-05T22:36:48.277Z,51.58
2022-10-05T22:39:17.903Z,52.05
2022-10-05T22:41:47.091Z,52.48
2022-10-05T22:44:15.676Z,52.61
2022-10-05T22:46:44.375Z,52.79
2022-10-05T22:49:13.451Z,52.75
2022-10-05T22:51:42.445Z,52.48
2022-10-05T22:54:11.145Z,52.03
2022-10-05T22:56:39.923Z,52.28
2022-10-05T22:59:08.608Z,52.97
2022-10-05T23:01:37.423Z,53.38
2022-10-05T23:04:06.084Z,53.54
2022-10-05T23:06:34.978Z,53.56
2022-10-05T23:09:03.984Z,53.49
2022-10-05T23:11:32.556Z,53.49
2022-10-05T23:14:01.241Z,53.39
2022-10-05T23:16:30.281Z,53.11
2022-10-05T23:19:00.397Z,53.09
2022-10-05T23:21:30.621Z,53.05
2022-10-05T23:23:59.265Z,52.75
2022-10-05T23:26:27.870Z,52.54
2022-10-05T23:28:56.733Z,52.53
2022-10-05T23:31:28.289Z,52.56
2022-10-05T23:33:57.387Z,52.93
2022-10-05T23:36:31.610Z,53.10
2022-10-05T23:39:00.599Z,52.82
2022-10-05T23:41:29.383Z,52.97
2022-10-05T23:43:57.967Z,52.93
2022-10-05T23:46:26.632Z,53.02
2022-10-05T23:48:55.342Z,53.18
2022-10-05T23:51:23.927Z,53.22
2022-10-05T23:53:52.516Z,53.19
2022-10-05T23:56:20.954Z,53.19
2022-10-05T23:58:49.580Z,53.30
